Hovedside
METAR-TAF:

METAR-TAF

Lufthavner :

Karlstad lufthavn

Karlstad, Sverige

breddegrad: 59-26-41N, lengdegrad: 013-20-15E, høyde over havet: 107 m

Gjeldene værobservasjon

Denne rapporten ble laget for 25 minutter siden, klokken 23:20 UTC
Vind 6 kt fra Nord
Temperatur 0°C
Luftfuktighet 93%
Trykk 1027 hPa
Sikt 10 km eller mer

METAR: ESOK 112320Z AUTO 36006KT 9999 OVC069/// 00/M01 Q1027

Tid: 00:45 (23:45 UTC)

Varsel

Denne rapporten ble laget for 6 timer og 15 minutter siden, klokken 17:30 UTC
Varsel gyldig fra 11. klokken 18 UTC til 11. klokken 22 UTC
Vind 9 kt fra Nord-nordøst
Sikt 10 km eller mer
Brutte skyer i en høyde av 3500 ft
Sannsynlighet 40%
fra 11. klokken 18 UTC til 11. klokken 22 UTC
Brutte skyer i en høyde av 300 ft

TAF: ESOK 111730Z 1118/1122 02009KT 9999 BKN035 PROB40 1118/1122 BKN003

Værobservasjoner og værvarsel for over 4000 flyplasser (METAR- og TAF-rapporter).

Tilgjengelige stasjoner er representert av de røde og gule prikkene på kartet.

Hold musepekeren over prikken for å se navnet på stasjonen.

Klikk så for å se værobservasjoner og -varsler.

For å forandre kartet kan du klikke på den grønne knappen med svart kryss for å zoome inn, på den grønne knappen med strek for å zoome ut, eller på de grønne pilene for å se tilstøtende kart.


METAR-TAF: